Terminal Aerodrome Forecast
Issued by NWS Jacksonville, FL

Home | Current Version | Previous Version | Text Only | Print | Product List | Glossary On
Versions: 1 2 3 4 5 6 7 8 9 10 11 12 13 14
381
FTUS42 KJAX 221149
TAFGNV
TAF
KGNV 221149Z 2212/2312 11002KT 1/2SM FG OVC002
      TEMPO 2212/2213 1/4SM FG
     FM221430 15010G18KT P6SM SCT030 BKN200
     FM230000 13005KT 3SM -SHRA VCTS SCT020CB BKN040 OVC100
     FM230200 16006KT 2SM SHRA BR VCTS OVC003CB PROB30 2303/2307
      1/2SM +TSRA=

USA.gov is the U.S. government's official web portal to all federal, state and local government web resources and services.